Time;durP1;ratioP1;P1;durP2;ratioP2;P2;SDS_P1;SDS_P2;PMS_P1;PMS_P2;Temp;Humidity;BMP_temperature;BMP_pressure;BME280_temperature;BME280_humidity;BME280_pressure;Samples;Min_cycle;Max_cycle;Signal;HPM_P1;HPM_P2
2022/03/15 00:00:34;;;;;;;0.00;0.00;;;;;20.00;100456.00;;;;5100889;28;20059;-78
2022/03/15 00:03:04;;;;;;;0.00;0.00;;;;;19.90;100461.00;;;;5084485;28;20087;-77
2022/03/15 00:05:34;;;;;;;0.00;0.00;;;;;19.90;100451.00;;;;5101754;28;20044;-77
2022/03/15 00:08:07;;;;;;;0.00;0.00;;;;;19.90;100468.00;;;;5085357;28;20566;-78
2022/03/15 00:10:37;;;;;;;0.00;0.00;;;;;19.90;100458.00;;;;5083853;28;20491;-77
2022/03/15 00:13:07;;;;;;;0.00;0.00;;;;;19.90;100455.00;;;;5098460;28;20047;-78
2022/03/15 00:15:38;;;;;;;0.00;0.00;;;;;19.90;100450.00;;;;5083183;28;20044;-78
2022/03/15 00:18:08;;;;;;;0.00;0.00;;;;;19.90;100455.00;;;;5085249;28;20602;-78
2022/03/15 00:20:38;;;;;;;0.00;0.00;;;;;19.90;100469.00;;;;5085074;28;20047;-82
2022/03/15 00:23:08;;;;;;;0.00;0.00;;;;;19.90;100476.00;;;;5087712;28;20047;-79
2022/03/15 00:25:40;;;;;;;0.00;0.00;;;;;19.90;100465.00;;;;5087584;28;20055;-77
2022/03/15 00:28:10;;;;;;;0.00;0.00;;;;;19.90;100481.00;;;;5088834;28;20044;-80
2022/03/15 00:30:41;;;;;;;0.00;0.00;;;;;19.90;100474.00;;;;5070906;28;20044;-78
2022/03/15 00:33:13;;;;;;;0.00;0.00;;;;;19.90;100479.00;;;;5089359;28;20529;-78
2022/03/15 00:35:43;;;;;;;0.00;0.00;;;;;19.90;100484.00;;;;5089317;28;20052;-79
2022/03/15 00:38:14;;;;;;;0.00;0.00;;;;;19.90;100476.00;;;;5087735;28;20130;-78
2022/03/15 00:40:44;;;;;;;0.00;0.00;;;;;19.90;100473.00;;;;5087832;28;20539;-78
2022/03/15 00:43:16;;;;;;;0.00;0.00;;;;;19.90;100473.00;;;;5095328;28;20126;-79
2022/03/15 00:45:45;;;;;;;0.00;0.00;;;;;19.90;100466.00;;;;5094903;28;20514;-75
2022/03/15 00:48:15;;;;;;;0.00;0.00;;;;;19.90;100473.00;;;;5097913;28;20032;-79
2022/03/15 00:50:45;;;;;;;0.00;0.00;;;;;19.90;100462.00;;;;5096200;28;20047;-78
2022/03/15 00:53:14;;;;;;;0.00;0.00;;;;;19.90;100472.00;;;;5114836;27;20050;-79
2022/03/15 00:55:44;;;;;;;0.00;0.00;;;;;19.90;100476.00;;;;5097908;28;20599;-78
2022/03/15 00:58:14;;;;;;;0.00;0.00;;;;;19.90;100462.00;;;;5098805;28;20036;-76
2022/03/15 01:00:48;;;;;;;0.00;0.00;;;;;19.90;100473.00;;;;5096803;28;20047;-78
2022/03/15 01:03:20;;;;;;;0.00;0.00;;;;;19.90;100456.00;;;;5079153;28;20054;-77
2022/03/15 01:05:51;;;;;;;0.00;0.00;;;;;19.90;100452.00;;;;5099553;28;20063;-77
2022/03/15 01:08:24;;;;;;;0.00;0.00;;;;;19.90;100452.00;;;;5096413;28;20042;-78
2022/03/15 01:10:54;;;;;;;0.00;0.00;;;;;19.90;100470.00;;;;5101916;28;20063;-78
2022/03/15 01:13:26;;;;;;;0.00;0.00;;;;;19.80;100458.00;;;;5103333;28;20155;-77
2022/03/15 01:15:57;;;;;;;0.00;0.00;;;;;19.90;100448.00;;;;5070476;28;20051;-76
2022/03/15 01:18:27;;;;;;;0.00;0.00;;;;;19.90;100453.00;;;;5097883;28;20131;-77
2022/03/15 01:20:57;;;;;;;0.00;0.00;;;;;19.90;100457.00;;;;5106450;28;20047;-77
2022/03/15 01:23:27;;;;;;;0.00;0.00;;;;;19.90;100455.00;;;;5105579;28;20373;-77
2022/03/15 01:25:57;;;;;;;0.00;0.00;;;;;19.80;100473.00;;;;5106410;28;20085;-77
2022/03/15 01:28:27;;;;;;;0.10;0.10;;;;;19.80;100441.00;;;;5124400;27;20050;-78
2022/03/15 01:30:57;;;;;;;0.00;0.00;;;;;19.80;100462.00;;;;5107418;27;20100;-78
2022/03/15 01:33:26;;;;;;;0.00;0.00;;;;;19.80;100462.00;;;;5123771;27;20113;-79
2022/03/15 01:35:56;;;;;;;0.00;0.00;;;;;19.80;100450.00;;;;5107700;28;20523;-77
2022/03/15 01:38:27;;;;;;;0.00;0.00;;;;;19.80;100447.00;;;;5108214;28;20047;-77
2022/03/15 01:40:57;;;;;;;0.00;0.00;;;;;19.80;100464.00;;;;5108706;28;20036;-76
2022/03/15 01:43:28;;;;;;;0.00;0.00;;;;;19.90;100445.00;;;;5123948;27;20043;-79
2022/03/15 01:45:57;;;;;;;;;;;;;19.80;100464.00;;;;5074576;28;20146;-78
2022/03/15 01:48:29;;;;;;;0.00;0.00;;;;;19.80;100462.00;;;;5123914;27;19920;-79
2022/03/15 01:50:59;;;;;;;0.00;0.00;;;;;19.80;100438.00;;;;5107801;28;20043;-79
2022/03/15 01:53:30;;;;;;;0.00;0.00;;;;;19.80;100438.00;;;;5107509;28;20032;-79
2022/03/15 01:56:02;;;;;;;0.00;0.00;;;;;19.90;100452.00;;;;5107145;28;20391;-75
2022/03/15 01:58:32;;;;;;;0.00;0.00;;;;;19.80;100452.00;;;;5123595;27;20044;-75
2022/03/15 02:01:03;;;;;;;;;;;;;19.80;100470.00;;;;5123887;27;20055;-76
2022/03/15 02:03:33;;;;;;;0.00;0.00;;;;;19.80;100467.00;;;;5123498;27;20420;-76
2022/03/15 02:06:05;;;;;;;0.00;0.00;;;;;19.90;100462.00;;;;5106823;28;20549;-76
2022/03/15 02:08:35;;;;;;;0.00;0.00;;;;;19.90;100446.00;;;;5107446;28;20498;-77
2022/03/15 02:11:08;;;;;;;0.00;0.00;;;;;19.90;100465.00;;;;5106786;28;20096;-78
2022/03/15 02:13:38;;;;;;;0.00;0.00;;;;;19.90;100444.00;;;;5107804;28;20138;-81
2022/03/15 02:16:08;;;;;;;0.00;0.00;;;;;19.90;100441.00;;;;5107364;28;20052;-77
2022/03/15 02:18:37;;;;;;;0.00;0.00;;;;;19.90;100436.00;;;;5107630;28;20051;-77
2022/03/15 02:21:08;;;;;;;0.00;0.00;;;;;19.90;100457.00;;;;5108026;27;20849;-78
2022/03/15 02:23:40;;;;;;;0.00;0.00;;;;;19.90;100436.00;;;;5105639;28;20048;-77
2022/03/15 02:26:10;;;;;;;0.00;0.00;;;;;20.00;100446.00;;;;5123025;27;20508;-78
2022/03/15 02:28:39;;;;;;;0.00;0.00;;;;;20.00;100431.00;;;;5105964;28;20199;-77
2022/03/15 02:31:09;;;;;;;0.00;0.00;;;;;19.90;100434.00;;;;5107286;28;20436;-77
2022/03/15 02:33:39;;;;;;;0.00;0.00;;;;;19.90;100434.00;;;;5107874;28;20044;-77
2022/03/15 02:36:08;;;;;;;0.00;0.00;;;;;20.00;100427.00;;;;5122697;27;20617;-77
2022/03/15 02:38:38;;;;;;;0.00;0.00;;;;;20.00;100439.00;;;;5105671;28;20059;-77
2022/03/15 02:41:08;;;;;;;0.00;0.00;;;;;20.00;100429.00;;;;5122194;27;20051;-78
2022/03/15 02:43:39;;;;;;;0.00;0.00;;;;;20.00;100436.00;;;;5106124;28;20044;-77
2022/03/15 02:46:09;;;;;;;0.00;0.00;;;;;20.00;100428.00;;;;5106320;28;20074;-77
2022/03/15 02:48:39;;;;;;;0.00;0.00;;;;;20.00;100444.00;;;;5107378;28;20067;-78
2022/03/15 02:51:09;;;;;;;0.00;0.00;;;;;20.00;100436.00;;;;5107420;28;20032;-79
2022/03/15 02:53:39;;;;;;;0.00;0.00;;;;;20.00;100427.00;;;;5122212;27;20082;-77
2022/03/15 02:56:11;;;;;;;0.00;0.00;;;;;20.00;100427.00;;;;5122164;27;20438;-79
2022/03/15 02:58:41;;;;;;;0.00;0.00;;;;;20.00;100449.00;;;;5107230;28;20047;-79
2022/03/15 03:01:11;;;;;;;0.00;0.00;;;;;20.10;100443.00;;;;5107200;28;20039;-78
2022/03/15 03:03:41;;;;;;;0.00;0.00;;;;;20.00;100446.00;;;;5105362;28;20043;-77
2022/03/15 03:06:11;;;;;;;0.00;0.00;;;;;20.10;100449.00;;;;5106785;28;20040;-77
2022/03/15 03:08:40;;;;;;;0.00;0.00;;;;;20.10;100440.00;;;;5122427;27;20044;-78
2022/03/15 03:11:10;;;;;;;0.00;0.00;;;;;20.10;100439.00;;;;5105919;28;20079;-78
2022/03/15 03:13:42;;;;;;;0.00;0.00;;;;;20.10;100427.00;;;;5107346;28;20035;-77
2022/03/15 03:16:15;;;;;;;0.00;0.00;;;;;20.10;100422.00;;;;5107035;28;20522;-79
2022/03/15 03:18:44;;;;;;;0.00;0.00;;;;;20.20;100441.00;;;;5104808;28;20092;-77
2022/03/15 03:21:14;;;;;;;0.00;0.00;;;;;20.20;100438.00;;;;5106643;28;20071;-77
2022/03/15 03:23:44;;;;;;;0.00;0.00;;;;;20.20;100408.00;;;;5122111;28;20427;-79
2022/03/15 03:26:13;;;;;;;0.00;0.00;;;;;20.10;100413.00;;;;5105130;28;20055;-76
2022/03/15 03:28:43;;;;;;;0.00;0.00;;;;;20.10;100429.00;;;;5106858;28;20553;-78
2022/03/15 03:31:14;;;;;;;0.00;0.00;;;;;20.10;100404.00;;;;5121896;28;20055;-76
2022/03/15 03:33:45;;;;;;;0.00;0.00;;;;;20.20;100428.00;;;;5106949;28;20131;-78
2022/03/15 03:36:14;;;;;;;0.00;0.00;;;;;20.20;100419.00;;;;5106836;28;20043;-78
2022/03/15 03:38:43;;;;;;;0.00;0.00;;;;;20.20;100423.00;;;;5107005;28;20048;-78
2022/03/15 03:41:13;;;;;;;0.00;0.00;;;;;20.20;100434.00;;;;5107312;28;20513;-78
2022/03/15 03:43:43;;;;;;;0.00;0.00;;;;;20.20;100422.00;;;;5121642;28;20063;-77
2022/03/15 03:46:12;;;;;;;0.00;0.00;;;;;20.20;100413.00;;;;5106350;28;20047;-77
2022/03/15 03:48:42;;;;;;;0.00;0.00;;;;;20.20;100419.00;;;;5106013;28;20436;-77
2022/03/15 03:51:13;;;;;;;0.00;0.00;;;;;20.30;100423.00;;;;5106333;28;20040;-78
2022/03/15 03:53:43;;;;;;;0.00;0.00;;;;;20.20;100414.00;;;;5104812;28;20373;-77
2022/03/15 03:56:13;;;;;;;0.00;0.00;;;;;20.20;100421.00;;;;5107588;28;20327;-77
2022/03/15 03:58:43;;;;;;;0.00;0.00;;;;;20.20;100429.00;;;;5108644;28;20433;-79
2022/03/15 04:01:12;;;;;;;0.00;0.00;;;;;20.20;100419.00;;;;5125660;27;20422;-77
2022/03/15 04:03:42;;;;;;;0.00;0.00;;;;;20.30;100411.00;;;;5108352;28;20044;-78
2022/03/15 04:06:13;;;;;;;0.00;0.00;;;;;20.30;100424.00;;;;5108843;28;20126;-78
2022/03/15 04:08:46;;;;;;;0.00;0.00;;;;;20.30;100421.00;;;;5108626;28;20058;-78
2022/03/15 04:11:16;;;;;;;0.00;0.00;;;;;20.30;100411.00;;;;5125745;27;20052;-78
2022/03/15 04:13:46;;;;;;;0.00;0.00;;;;;20.30;100408.00;;;;5110543;28;20048;-78
2022/03/15 04:16:18;;;;;;;0.00;0.00;;;;;20.30;100415.00;;;;5109918;28;20170;-78
2022/03/15 04:18:48;;;;;;;0.00;0.00;;;;;20.30;100403.00;;;;5108761;28;20047;-77
2022/03/15 04:21:18;;;;;;;0.00;0.00;;;;;20.30;100429.00;;;;5109872;28;20629;-77
2022/03/15 04:23:47;;;;;;;0.00;0.00;;;;;20.30;100411.00;;;;5110828;27;20050;-77
2022/03/15 04:26:18;;;;;;;0.00;0.00;;;;;20.30;100422.00;;;;5108072;28;20044;-78
2022/03/15 04:28:47;;;;;;;0.00;0.00;;;;;20.30;100425.00;;;;5109437;28;20048;-77
2022/03/15 04:31:17;;;;;;;0.00;0.00;;;;;20.20;100418.00;;;;5109837;28;20426;-78
2022/03/15 04:33:46;;;;;;;0.00;0.00;;;;;20.20;100432.00;;;;5125230;27;20050;-77
2022/03/15 04:36:16;;;;;;;0.00;0.00;;;;;20.20;100416.00;;;;5124866;27;20035;-78
2022/03/15 04:38:47;;;;;;;0.00;0.00;;;;;20.20;100404.00;;;;5108029;28;20097;-78
2022/03/15 04:41:16;;;;;;;0.00;0.00;;;;;20.20;100404.00;;;;5109796;28;20036;-77
2022/03/15 04:43:46;;;;;;;0.00;0.00;;;;;20.20;100406.00;;;;5108117;28;20092;-78
2022/03/15 04:46:15;;;;;;;0.00;0.00;;;;;20.20;100406.00;;;;5125723;27;20048;-78
2022/03/15 04:48:45;;;;;;;0.00;0.00;;;;;20.30;100409.00;;;;5108180;28;20056;-77
2022/03/15 04:51:14;;;;;;;0.00;0.00;;;;;20.30;100394.00;;;;5108512;28;20055;-78
2022/03/15 04:53:48;;;;;;;0.00;0.00;;;;;20.30;100389.00;;;;5108785;28;20043;-78
2022/03/15 04:56:19;;;;;;;0.00;0.00;;;;;20.20;100413.00;;;;5109216;28;20104;-78
2022/03/15 04:58:48;;;;;;;0.00;0.00;;;;;20.20;100402.00;;;;5108759;28;20574;-79
2022/03/15 05:01:18;;;;;;;0.00;0.00;;;;;20.30;100390.00;;;;5107446;28;20046;-78
2022/03/15 05:03:47;;;;;;;0.00;0.00;;;;;20.30;100394.00;;;;5107575;28;20403;-78
2022/03/15 05:06:17;;;;;;;0.00;0.00;;;;;20.30;100404.00;;;;5108518;28;20055;-77
2022/03/15 05:08:48;;;;;;;0.00;0.00;;;;;20.30;100394.00;;;;5107333;28;20051;-78
2022/03/15 05:11:19;;;;;;;0.00;0.00;;;;;20.30;100383.00;;;;5124289;27;20081;-77
2022/03/15 05:13:49;;;;;;;0.00;0.00;;;;;20.30;100383.00;;;;5108848;28;20510;-78
2022/03/15 05:16:22;;;;;;;0.00;0.00;;;;;20.30;100383.00;;;;5107247;28;20514;-78
2022/03/15 05:18:54;;;;;;;0.00;0.00;;;;;20.20;100399.00;;;;5106808;28;20315;-78
2022/03/15 05:21:27;;;;;;;0.00;0.00;;;;;20.30;100392.00;;;;5107781;27;20089;-78
2022/03/15 05:23:57;;;;;;;0.00;0.00;;;;;20.20;100386.00;;;;5108818;27;20857;-78
2022/03/15 05:26:26;;;;;;;0.00;0.00;;;;;20.20;100374.00;;;;5107071;28;20055;-77
2022/03/15 05:28:57;;;;;;;0.00;0.00;;;;;20.20;100380.00;;;;5108194;28;20032;-77
2022/03/15 05:31:29;;;;;;;0.00;0.00;;;;;20.20;100371.00;;;;5109218;28;20040;-78
2022/03/15 05:33:59;;;;;;;0.00;0.00;;;;;20.30;100384.00;;;;5107838;28;20124;-77
2022/03/15 05:36:28;;;;;;;0.00;0.00;;;;;20.20;100384.00;;;;5124266;27;20650;-77
2022/03/15 05:38:57;;;;;;;0.00;0.00;;;;;20.20;100366.00;;;;5107692;28;20128;-78
2022/03/15 05:41:27;;;;;;;0.00;0.00;;;;;20.20;100367.00;;;;5106946;28;20047;-78
2022/03/15 05:43:56;;;;;;;0.00;0.00;;;;;20.20;100355.00;;;;5107925;28;20047;-78
2022/03/15 05:46:26;;;;;;;0.00;0.00;;;;;20.20;100355.00;;;;5107700;28;20067;-77
2022/03/15 05:48:56;;;;;;;0.00;0.00;;;;;20.10;100371.00;;;;5106387;28;20043;-78
2022/03/15 05:51:25;;;;;;;0.00;0.00;;;;;20.10;100348.00;;;;5107965;28;20039;-77
2022/03/15 05:53:54;;;;;;;0.00;0.00;;;;;20.10;100353.00;;;;5107148;28;20428;-77
2022/03/15 05:56:24;;;;;;;0.00;0.00;;;;;20.10;100354.00;;;;5108494;28;20108;-78
2022/03/15 05:58:53;;;;;;;0.00;0.00;;;;;20.00;100351.00;;;;5112506;28;20674;-77
2022/03/15 06:01:22;;;;;;;0.00;0.00;;;;;20.00;100369.00;;;;5111776;28;20066;-77
2022/03/15 06:03:53;;;;;;;0.00;0.00;;;;;20.00;100350.00;;;;5111598;28;20105;-78
2022/03/15 06:06:24;;;;;;;0.00;0.00;;;;;19.90;100374.00;;;;5111226;28;20051;-78
2022/03/15 06:08:53;;;;;;;0.00;0.00;;;;;19.90;100358.00;;;;5111048;28;20059;-77
2022/03/15 06:11:22;;;;;;;0.00;0.00;;;;;19.80;100369.00;;;;5108934;28;20122;-78
2022/03/15 06:13:52;;;;;;;0.00;0.00;;;;;19.80;100358.00;;;;5107391;27;20036;-78
2022/03/15 06:16:22;;;;;;;0.00;0.00;;;;;19.90;100366.00;;;;5122759;27;20532;-78
2022/03/15 06:18:51;;;;;;;0.00;0.00;;;;;19.90;100386.00;;;;5105442;28;20089;-78
2022/03/15 06:21:21;;;;;;;0.00;0.00;;;;;19.90;100385.00;;;;5107291;28;20050;-77
2022/03/15 06:23:50;;;;;;;0.00;0.00;;;;;19.90;100364.00;;;;5107386;28;20043;-77
2022/03/15 06:26:38;;;;;;;0.00;0.00;;;;;20.00;100354.00;;;;5107588;28;20064;-78
2022/03/15 06:29:11;;;;;;;0.00;0.00;;;;;20.00;100364.00;;;;5107271;28;20044;-78
2022/03/15 06:31:42;;;;;;;0.00;0.00;;;;;20.00;100342.00;;;;5107433;28;20036;-78
2022/03/15 06:34:12;;;;;;;0.00;0.00;;;;;19.90;100351.00;;;;5107275;28;20035;-78
2022/03/15 06:36:42;;;;;;;0.00;0.00;;;;;20.00;100366.00;;;;5122369;27;20046;-78
2022/03/15 06:39:11;;;;;;;0.00;0.00;;;;;20.00;100369.00;;;;5105791;28;20050;-78
2022/03/15 06:41:41;;;;;;;0.00;0.00;;;;;20.00;100375.00;;;;5107535;28;20780;-78
2022/03/15 06:44:11;;;;;;;0.00;0.00;;;;;20.10;100371.00;;;;5107529;28;20048;-77
2022/03/15 06:46:41;;;;;;;0.00;0.00;;;;;20.10;100397.00;;;;5105616;28;20406;-77
2022/03/15 06:49:10;;;;;;;0.00;0.00;;;;;20.10;100397.00;;;;5106681;28;20043;-78
2022/03/15 06:51:40;;;;;;;0.00;0.00;;;;;20.10;100395.00;;;;5106995;28;20545;-78
2022/03/15 06:54:10;;;;;;;0.00;0.00;;;;;20.10;100400.00;;;;5106370;28;20126;-78
2022/03/15 06:56:40;;;;;;;0.00;0.00;;;;;20.10;100387.00;;;;5105609;28;20039;-77
2022/03/15 06:59:09;;;;;;;0.00;0.00;;;;;20.10;100376.00;;;;5105899;28;20042;-78
2022/03/15 07:01:39;;;;;;;0.00;0.00;;;;;20.20;100390.00;;;;5106363;28;20528;-78
2022/03/15 07:04:13;;;;;;;0.00;0.00;;;;;20.20;100379.00;;;;5106788;28;20044;-77
2022/03/15 07:06:44;;;;;;;0.00;0.00;;;;;20.20;100390.00;;;;5122318;27;20575;-77
2022/03/15 07:09:13;;;;;;;0.00;0.00;;;;;20.20;100395.00;;;;5106670;28;20058;-78
2022/03/15 07:11:43;;;;;;;0.00;0.00;;;;;20.20;100401.00;;;;5106270;28;20040;-78
2022/03/15 07:14:13;;;;;;;0.00;0.00;;;;;20.20;100413.00;;;;5105481;28;20081;-77
2022/03/15 07:16:42;;;;;;;0.00;0.00;;;;;20.20;100397.00;;;;5106936;28;20055;-77
2022/03/15 07:19:12;;;;;;;0.00;0.00;;;;;20.30;100410.00;;;;5107095;28;20036;-77
2022/03/15 07:21:41;;;;;;;0.00;0.00;;;;;20.20;100423.00;;;;5105031;28;20050;-78
2022/03/15 07:24:11;;;;;;;0.00;0.00;;;;;20.30;100411.00;;;;5106277;28;20536;-78
2022/03/15 07:26:41;;;;;;;0.00;0.00;;;;;20.30;100415.00;;;;5105886;28;20047;-78
2022/03/15 07:29:10;;;;;;;0.00;0.00;;;;;20.30;100419.00;;;;5106718;28;20046;-78
2022/03/15 07:31:40;;;;;;;0.00;0.00;;;;;20.30;100417.00;;;;5109278;28;20566;-77
2022/03/15 07:34:09;;;;;;;0.00;0.00;;;;;20.20;100402.00;;;;5110329;27;20244;-77
2022/03/15 07:36:39;;;;;;;0.00;0.00;;;;;20.20;100432.00;;;;5092461;28;20058;-78
2022/03/15 07:39:08;;;;;;;0.00;0.00;;;;;20.20;100434.00;;;;5110973;27;20036;-78
2022/03/15 07:41:39;;;;;;;0.00;0.00;;;;;20.20;100412.00;;;;5110583;28;20558;-78
2022/03/15 07:44:10;;;;;;;0.00;0.00;;;;;20.20;100425.00;;;;5110988;28;20043;-77
2022/03/15 07:46:48;;;;;;;0.00;0.00;;;;;20.20;100421.00;;;;5108733;28;20044;-78
2022/03/15 07:49:20;;;;;;;0.00;0.00;;;;;20.20;100430.00;;;;5108658;28;20044;-78
2022/03/15 07:51:51;;;;;;;0.00;0.00;;;;;20.20;100429.00;;;;5110573;28;20085;-78
2022/03/15 07:54:20;;;;;;;0.00;0.00;;;;;20.20;100429.00;;;;5108926;28;20051;-77
2022/03/15 07:56:50;;;;;;;0.00;0.00;;;;;20.20;100429.00;;;;5110679;28;20054;-77
2022/03/15 07:59:23;;;;;;;0.00;0.00;;;;;20.20;100420.00;;;;5125736;27;20092;-78
2022/03/15 08:01:53;;;;;;;0.00;0.00;;;;;20.20;100423.00;;;;5110047;28;20039;-78
2022/03/15 08:04:22;;;;;;;0.00;0.00;;;;;20.20;100432.00;;;;5126442;27;20048;-77
2022/03/15 08:06:51;;;;;;;0.00;0.00;;;;;20.20;100437.00;;;;5110980;28;20040;-78
2022/03/15 08:09:22;;;;;;;0.00;0.00;;;;;20.20;100435.00;;;;5110165;28;20051;-78
2022/03/15 08:11:51;;;;;;;;;;;;;20.20;100452.00;;;;5111215;28;20035;-77
2022/03/15 08:14:21;;;;;;;0.00;0.00;;;;;20.20;100426.00;;;;5109876;28;19919;-78
2022/03/15 08:16:52;;;;;;;0.00;0.00;;;;;20.20;100426.00;;;;5110411;28;20084;-78
2022/03/15 08:19:22;;;;;;;0.00;0.00;;;;;20.20;100451.00;;;;5109913;28;20039;-77
2022/03/15 08:21:52;;;;;;;0.00;0.00;;;;;20.20;100433.00;;;;5111207;28;20609;-77
2022/03/15 08:24:22;;;;;;;0.00;0.00;;;;;20.20;100436.00;;;;5110038;28;20047;-77
2022/03/15 08:26:51;;;;;;;0.00;0.00;;;;;20.20;100438.00;;;;5108313;28;20039;-78
2022/03/15 08:29:21;;;;;;;0.00;0.00;;;;;20.20;100457.00;;;;5125677;27;20044;-77
2022/03/15 08:31:51;;;;;;;0.00;0.00;;;;;20.20;100445.00;;;;5109462;28;20101;-77
2022/03/15 08:34:20;;;;;;;0.00;0.00;;;;;20.20;100461.00;;;;5108869;28;20053;-77
2022/03/15 08:36:50;;;;;;;0.00;0.00;;;;;20.10;100460.00;;;;5109414;28;20039;-77
2022/03/15 08:39:22;;;;;;;0.00;0.00;;;;;20.10;100452.00;;;;5107993;28;20094;-77
2022/03/15 08:41:53;;;;;;;0.00;0.00;;;;;20.10;100464.00;;;;5108757;28;20067;-78
2022/03/15 08:44:23;;;;;;;0.00;0.00;;;;;20.10;100459.00;;;;5125319;27;20055;-78
2022/03/15 08:46:53;;;;;;;0.00;0.00;;;;;20.10;100451.00;;;;5108544;28;20529;-78
2022/03/15 08:49:22;;;;;;;0.00;0.00;;;;;20.10;100471.00;;;;5125578;27;20769;-77
2022/03/15 08:51:52;;;;;;;0.00;0.00;;;;;20.10;100470.00;;;;5108789;28;20046;-78
2022/03/15 08:54:22;;;;;;;0.00;0.00;;;;;20.10;100476.00;;;;5109468;28;20053;-76
2022/03/15 08:56:52;;;;;;;0.00;0.00;;;;;20.10;100502.00;;;;5108829;28;20047;-77
2022/03/15 08:59:21;;;;;;;0.00;0.00;;;;;20.20;100506.00;;;;5109331;28;20050;-78
2022/03/15 09:01:51;;;;;;;0.00;0.00;;;;;20.20;100501.00;;;;5107212;28;20138;-80
2022/03/15 09:04:22;;;;;;;0.00;0.00;;;;;20.20;100495.00;;;;5124213;27;20054;-77
2022/03/15 09:06:51;;;;;;;0.00;0.00;;;;;20.20;100506.00;;;;5106864;28;20043;-77
2022/03/15 09:09:24;;;;;;;0.00;0.00;;;;;20.20;100503.00;;;;5108455;28;20047;-77
2022/03/15 09:11:55;;;;;;;0.00;0.00;;;;;20.20;100512.00;;;;5108945;28;20032;-78
2022/03/15 09:14:24;;;;;;;0.00;0.00;;;;;20.20;100512.00;;;;5109104;28;20407;-78
2022/03/15 09:16:54;;;;;;;0.00;0.00;;;;;20.30;100515.00;;;;5106763;28;20127;-78
2022/03/15 09:19:23;;;;;;;0.00;0.00;;;;;20.20;100525.00;;;;5109085;28;20040;-76
2022/03/15 09:21:53;;;;;;;0.00;0.00;;;;;20.20;100524.00;;;;5108627;28;20426;-78
2022/03/15 09:24:23;;;;;;;0.00;0.00;;;;;20.20;100532.00;;;;5107771;28;20046;-78
2022/03/15 09:26:52;;;;;;;0.00;0.00;;;;;20.20;100532.00;;;;5108575;28;20423;-77
2022/03/15 09:29:23;;;;;;;0.00;0.00;;;;;20.20;100530.00;;;;5108549;28;20050;-78
2022/03/15 09:31:53;;;;;;;0.00;0.00;;;;;20.20;100538.00;;;;5124105;27;20055;-77
2022/03/15 09:34:25;;;;;;;0.00;0.00;;;;;20.20;100522.00;;;;5108819;28;20047;-77
2022/03/15 09:36:54;;;;;;;0.00;0.00;;;;;20.30;100526.00;;;;5123843;27;20052;-77
2022/03/15 09:39:24;;;;;;;0.00;0.00;;;;;20.30;100547.00;;;;5107166;28;20043;-77
2022/03/15 09:41:58;;;;;;;0.00;0.00;;;;;20.40;100532.00;;;;5107620;28;20039;-78
2022/03/15 09:44:30;;;;;;;0.00;0.00;;;;;20.40;100538.00;;;;5108675;27;20040;-78
2022/03/15 09:47:08;;;;;;;0.00;0.00;;;;;20.50;100522.00;;;;5107808;28;20532;-77
2022/03/15 09:49:37;;;;;;;0.00;0.00;;;;;20.50;100543.00;;;;5106797;28;20436;-77
2022/03/15 09:52:09;;;;;;;0.00;0.00;;;;;20.60;100538.00;;;;5107899;28;20043;-77
2022/03/15 09:54:39;;;;;;;;;;;;;20.60;100552.00;;;;5123623;27;20725;-77
2022/03/15 09:57:09;;;;;;;0.00;0.00;;;;;20.60;100534.00;;;;5123832;27;20478;-77
2022/03/15 09:59:38;;;;;;;0.00;0.00;;;;;20.60;100555.00;;;;5108336;28;20062;-78
2022/03/15 10:02:10;;;;;;;0.00;0.00;;;;;20.60;100562.00;;;;5108144;28;20054;-76
2022/03/15 10:04:40;;;;;;;0.00;0.00;;;;;20.70;100563.00;;;;5106411;28;20525;-77
2022/03/15 10:07:11;;;;;;;0.00;0.00;;;;;20.80;100556.00;;;;5106391;28;20494;-77
2022/03/15 10:09:40;;;;;;;0.00;0.00;;;;;20.90;100546.00;;;;5108326;28;20048;-78
2022/03/15 10:12:11;;;;;;;0.00;0.00;;;;;21.10;100565.00;;;;5107864;28;20499;-78
2022/03/15 10:14:46;;;;;;;0.00;0.00;;;;;21.40;100541.00;;;;5107497;28;20043;-77
2022/03/15 10:17:16;;;;;;;0.00;0.00;;;;;21.50;100559.00;;;;5106235;28;20413;-78
2022/03/15 10:19:56;;;;;;;0.00;0.00;;;;;21.80;100552.00;;;;5106231;28;20100;-78
2022/03/15 10:22:27;;;;;;;0.00;0.00;;;;;22.00;100545.00;;;;5106370;27;20052;-79
2022/03/15 10:24:57;;;;;;;0.00;0.00;;;;;22.00;100557.00;;;;5106865;27;20056;-79
2022/03/15 10:27:27;;;;;;;0.00;0.00;;;;;21.90;100551.00;;;;5105123;28;20387;-78
2022/03/15 10:29:57;;;;;;;0.00;0.00;;;;;21.90;100552.00;;;;5107317;28;20472;-83
2022/03/15 10:32:28;;;;;;;0.00;0.00;;;;;21.70;100580.00;;;;5124111;27;20051;-77
2022/03/15 10:35:08;;;;;;;0.00;0.00;;;;;21.80;100573.00;;;;5107219;28;20036;-77
2022/03/15 10:37:42;;;;;;;0.00;0.00;;;;;21.80;100575.00;;;;5107239;28;20070;-78
2022/03/15 10:40:12;;;;;;;0.00;0.00;;;;;22.00;100543.00;;;;5106470;28;20039;-78
2022/03/15 10:42:44;;;;;;;0.00;0.00;;;;;22.20;100560.00;;;;5122653;27;20052;-80
2022/03/15 10:45:19;;;;;;;0.00;0.00;;;;;22.30;100548.00;;;;5107457;28;20122;-77
2022/03/15 10:47:54;;;;;;;0.00;0.00;;;;;22.30;100569.00;;;;5106538;28;20039;-78
2022/03/15 10:50:24;;;;;;;0.00;0.00;;;;;22.40;100557.00;;;;5105509;28;20043;-78
2022/03/15 10:52:58;;;;;;;0.00;0.00;;;;;22.40;100577.00;;;;5106653;28;20788;-78
2022/03/15 10:55:29;;;;;;;0.00;0.00;;;;;22.20;100540.00;;;;5107465;28;20529;-78
2022/03/15 10:58:05;;;;;;;0.00;0.00;;;;;22.80;100537.00;;;;5122225;27;20478;-78
2022/03/15 11:00:41;;;;;;;;;;;;;23.70;100559.00;;;;5105779;28;20160;-77
2022/03/15 11:03:20;;;;;;;0.00;0.00;;;;;25.80;100476.00;;;;5122780;27;19919;-78
2022/03/15 11:05:55;;;;;;;0.00;0.00;;;;;30.40;100425.00;;;;5107013;28;20051;-79
2022/03/15 11:08:25;;;;;;;0.45;0.45;;;;;27.40;100569.00;;;;5121809;27;20039;-80
2022/03/15 11:10:55;;;;;;;0.00;0.00;;;;;24.40;100562.00;;;;5122634;27;20555;-80
2022/03/15 11:13:30;;;;;;;0.00;0.00;;;;;23.40;100575.00;;;;5106632;28;20057;-75
2022/03/15 11:16:02;;;;;;;0.00;0.00;;;;;23.20;100590.00;;;;5106284;27;20040;-77
2022/03/15 11:18:35;;;;;;;0.00;0.00;;;;;24.80;100530.00;;;;5089977;28;20040;-77
2022/03/15 11:21:06;;;;;;;0.00;0.00;;;;;26.20;100498.00;;;;5093782;28;20476;-78
2022/03/15 11:23:42;;;;;;;0.00;0.00;;;;;26.10;100561.00;;;;5105085;28;20047;-79
2022/03/15 11:26:17;;;;;;;0.00;0.00;;;;;26.00;100535.00;;;;5122321;28;20067;-79
2022/03/15 11:28:48;;;;;;;0.00;0.00;;;;;26.30;100547.00;;;;5104213;28;20745;-79
2022/03/15 11:31:18;;;;;;;0.00;0.00;;;;;26.20;100551.00;;;;5105167;28;20055;-77
2022/03/15 11:33:50;;;;;;;0.00;0.00;;;;;25.70;100573.00;;;;5122057;28;20055;-77
2022/03/15 11:36:23;;;;;;;0.00;0.00;;;;;25.00;100596.00;;;;5105360;28;20097;-77
2022/03/15 11:38:53;;;;;;;0.00;0.00;;;;;24.00;100601.00;;;;5106363;28;20044;-77
2022/03/15 11:41:23;;;;;;;0.00;0.00;;;;;23.70;100604.00;;;;5104624;28;20087;-77
2022/03/15 11:44:14;;;;;;;0.15;0.15;;;;;23.60;100608.00;;;;5122375;28;20050;-77
2022/03/15 11:46:52;;;;;;;0.00;0.00;;;;;23.50;100610.00;;;;5104820;28;20580;-77
2022/03/15 11:49:47;;;;;;;0.00;0.00;;;;;23.50;100624.00;;;;5106411;28;20042;-77
2022/03/15 11:53:07;;;;;;;0.00;0.00;;;;;23.40;100638.00;;;;5106591;28;20490;-77
2022/03/15 11:55:52;;;;;;;0.00;0.00;;;;;23.50;100623.00;;;;5066971;28;20534;-77
2022/03/15 11:58:27;;;;;;;0.00;0.00;;;;;23.60;100615.00;;;;5106628;28;20089;-76
2022/03/15 12:01:08;;;;;;;0.00;0.00;;;;;23.70;100608.00;;;;5106074;28;20800;-77
2022/03/15 12:03:47;;;;;;;0.00;0.00;;;;;24.50;100573.00;;;;5106645;28;20035;-78
2022/03/15 12:06:20;;;;;;;0.00;0.00;;;;;30.60;100432.00;;;;5106638;28;20529;-77
2022/03/15 12:08:53;;;;;;;0.00;0.00;;;;;30.90;100529.00;;;;5106098;28;20112;-78
2022/03/15 12:11:37;;;;;;;0.00;0.00;;;;;27.40;100586.00;;;;5107092;28;20593;-79
2022/03/15 12:14:13;;;;;;;0.00;0.00;;;;;25.90;100602.00;;;;5104936;28;20075;-78
2022/03/15 12:16:49;;;;;;;0.00;0.00;;;;;25.00;100606.00;;;;5106603;28;20056;-79
2022/03/15 12:19:39;;;;;;;0.00;0.00;;;;;24.60;100614.00;;;;5109693;28;20050;-77
2022/03/15 12:22:11;;;;;;;0.00;0.00;;;;;24.60;100622.00;;;;5108297;28;20097;-77
2022/03/15 12:24:45;;;;;;;0.00;0.00;;;;;24.60;100617.00;;;;5109516;28;20036;-78
2022/03/15 12:27:21;;;;;;;0.00;0.00;;;;;24.70;100614.00;;;;5109731;28;20105;-77